Time;durP1;ratioP1;P1;durP2;ratioP2;P2;SDS_P1;SDS_P2;PMS_P1;PMS_P2;Temp;Humidity;BMP_temperature;BMP_pressure;BME280_temperature;BME280_humidity;BME280_pressure;Samples;Min_cycle;Max_cycle;Signal;HPM_P1;HPM_P2
2022/12/26 00:00:53;;;;;;;1999.90;999.90;;;11.20;99.90;;;;;;5019518;28;20445;-67
2022/12/26 00:03:20;;;;;;;1999.90;999.90;;;11.20;99.90;;;;;;5026938;28;20444;-67
2022/12/26 00:05:47;;;;;;;1999.90;999.90;;;11.20;99.90;;;;;;5026892;28;20465;-67
2022/12/26 00:08:14;;;;;;;1999.90;999.90;;;11.30;99.90;;;;;;5026394;28;20799;-67
2022/12/26 00:10:40;;;;;;;1999.90;999.90;;;11.40;99.90;;;;;;5026272;28;20854;-67
2022/12/26 00:13:07;;;;;;;1999.90;999.90;;;11.40;99.90;;;;;;5025934;28;20488;-67
2022/12/26 00:15:34;;;;;;;1999.90;999.90;;;11.50;99.90;;;;;;5021986;28;20841;-67
2022/12/26 00:18:02;;;;;;;1999.90;999.90;;;11.60;99.90;;;;;;5007262;28;20458;-67
2022/12/26 00:20:29;;;;;;;1999.90;999.90;;;11.60;99.90;;;;;;5006634;28;20453;-67
2022/12/26 00:22:56;;;;;;;1999.90;999.90;;;11.60;99.90;;;;;;5006646;28;20446;-67
2022/12/26 00:25:23;;;;;;;1999.90;999.90;;;11.60;99.90;;;;;;5006536;28;21172;-67
2022/12/26 00:27:49;;;;;;;1999.90;999.90;;;11.60;99.90;;;;;;5007860;28;20470;-67
2022/12/26 00:30:16;;;;;;;1999.90;999.90;;;11.60;99.90;;;;;;5017332;28;20445;-67
2022/12/26 00:32:43;;;;;;;1999.90;999.90;;;11.60;99.90;;;;;;5024766;28;20488;-67
2022/12/26 00:35:11;;;;;;;1999.90;999.90;;;11.60;99.90;;;;;;5006542;28;20468;-67
2022/12/26 00:37:38;;;;;;;1999.90;999.90;;;11.50;99.90;;;;;;5006960;28;20452;-67
2022/12/26 00:40:06;;;;;;;1999.90;999.90;;;11.50;99.90;;;;;;5004988;28;20442;-67
2022/12/26 00:42:33;;;;;;;1999.90;999.90;;;11.40;99.90;;;;;;5006737;28;20481;-67
2022/12/26 00:45:00;;;;;;;1999.90;999.90;;;11.40;99.90;;;;;;5006226;28;20461;-67
2022/12/26 00:47:27;;;;;;;1999.90;999.90;;;11.30;99.90;;;;;;5007015;28;20452;-67
2022/12/26 00:49:53;;;;;;;1999.90;999.90;;;11.30;99.90;;;;;;5011118;28;21236;-67
2022/12/26 00:52:21;;;;;;;1999.90;999.90;;;11.20;99.90;;;;;;5012987;28;20904;-67
2022/12/26 00:54:48;;;;;;;1999.90;999.90;;;11.30;99.90;;;;;;5005766;28;20500;-67
2022/12/26 00:57:15;;;;;;;1999.90;999.90;;;11.30;99.90;;;;;;5006288;28;20461;-67
2022/12/26 00:59:42;;;;;;;1999.90;999.90;;;11.20;99.90;;;;;;5017807;28;20460;-67
2022/12/26 01:02:36;;;;;;;1999.90;999.90;;;11.10;99.90;;;;;;5019503;28;20836;-67
2022/12/26 01:04:55;;;;;;;1999.90;999.90;;;11.00;99.90;;;;;;5023904;28;20556;-67
2022/12/26 01:07:24;;;;;;;1999.90;999.90;;;11.00;99.90;;;;;;5013564;28;20448;-67
2022/12/26 01:09:51;;;;;;;1999.90;999.90;;;11.00;99.90;;;;;;5018867;28;20461;-66
2022/12/26 01:12:18;;;;;;;1999.90;999.90;;;11.00;99.90;;;;;;5022277;28;20453;-67
2022/12/26 01:14:45;;;;;;;1999.90;999.90;;;11.00;99.90;;;;;;5015441;28;20496;-67
2022/12/26 01:17:11;;;;;;;1999.90;999.90;;;10.90;99.90;;;;;;5008115;28;20797;-67
2022/12/26 01:19:38;;;;;;;1999.90;999.90;;;10.80;99.90;;;;;;5005966;28;20944;-67
2022/12/26 01:22:05;;;;;;;1999.90;999.90;;;10.80;99.90;;;;;;5006006;28;20453;-67
2022/12/26 01:24:33;;;;;;;1999.90;999.90;;;10.70;99.90;;;;;;5007206;28;20974;-67
2022/12/26 01:27:00;;;;;;;1999.90;999.90;;;10.60;99.90;;;;;;5018613;28;20528;-67
2022/12/26 01:29:27;;;;;;;1999.90;999.90;;;10.70;99.90;;;;;;5019063;28;20456;-67
2022/12/26 01:31:53;;;;;;;1999.90;999.90;;;10.50;99.90;;;;;;5008142;28;20453;-67
2022/12/26 01:34:21;;;;;;;1999.90;999.90;;;10.50;99.90;;;;;;5022922;28;20484;-67
2022/12/26 01:36:47;;;;;;;1999.90;999.90;;;10.50;99.90;;;;;;5022964;28;20994;-67
2022/12/26 01:39:14;;;;;;;1999.90;999.90;;;10.40;99.90;;;;;;5011852;28;20481;-67
2022/12/26 01:41:42;;;;;;;1999.90;999.90;;;10.40;99.90;;;;;;5012446;28;20454;-67
2022/12/26 01:44:42;;;;;;;1999.90;999.90;;;10.40;99.90;;;;;;5013295;28;20460;-67
2022/12/26 01:47:09;;;;;;;1999.90;999.90;;;10.40;99.90;;;;;;5010505;28;20448;-67
2022/12/26 01:49:41;;;;;;;1999.90;999.90;;;10.40;99.90;;;;;;5005625;28;20949;-67
2022/12/26 01:52:12;;;;;;;1999.90;999.90;;;10.40;99.90;;;;;;5018920;28;20981;-67
2022/12/26 01:54:42;;;;;;;1999.90;999.90;;;10.50;99.90;;;;;;5012099;28;20485;-67
2022/12/26 01:57:15;;;;;;;1999.90;999.90;;;10.50;99.90;;;;;;5019553;28;20459;-67
2022/12/26 01:59:43;;;;;;;1999.90;999.90;;;10.50;99.90;;;;;;5009232;28;20469;-67
2022/12/26 02:02:10;;;;;;;1999.90;999.90;;;10.50;99.90;;;;;;5009731;28;20453;-68
2022/12/26 02:07:28;;;;;;;1999.90;999.90;;;10.60;99.90;;;;;;5010308;28;20449;-68
2022/12/26 02:09:55;;;;;;;1999.90;999.90;;;10.60;99.90;;;;;;5009813;28;20835;-68
2022/12/26 02:12:26;;;;;;;1999.90;999.90;;;10.60;99.90;;;;;;5010442;28;21161;-68
2022/12/26 02:14:55;;;;;;;1999.90;999.90;;;10.60;99.90;;;;;;5010140;28;20489;-67
2022/12/26 02:17:22;;;;;;;1999.90;999.90;;;10.70;99.90;;;;;;4990802;28;21024;-67
2022/12/26 02:19:58;;;;;;;1999.90;999.90;;;10.70;99.90;;;;;;4990517;28;20450;-67
2022/12/26 02:22:50;;;;;;;1999.90;999.90;;;10.70;99.90;;;;;;4991057;28;20493;-68
2022/12/26 02:25:43;;;;;;;1999.90;999.90;;;10.80;99.90;;;;;;4991257;28;20481;-68
2022/12/26 02:28:34;;;;;;;1999.90;999.90;;;10.80;99.90;;;;;;4990677;28;20461;-67
2022/12/26 02:31:05;;;;;;;1999.90;999.90;;;10.80;99.90;;;;;;5001955;28;20456;-68
2022/12/26 02:33:54;;;;;;;1999.90;999.90;;;10.70;99.90;;;;;;5009451;28;20477;-68
2022/12/26 02:36:47;;;;;;;1999.90;999.90;;;10.70;99.90;;;;;;5009723;28;20481;-67
2022/12/26 02:39:28;;;;;;;1999.90;999.90;;;10.70;99.90;;;;;;5009482;28;20457;-67
2022/12/26 02:42:06;;;;;;;1999.90;999.90;;;10.80;99.90;;;;;;5010680;28;20449;-68
2022/12/26 02:47:33;;;;;;;1999.90;999.90;;;10.90;99.90;;;;;;5011529;28;20453;-68
2022/12/26 03:13:12;;;;;;;1999.90;999.90;;;11.00;99.90;;;;;;5009313;28;20958;-68
2022/12/26 03:18:29;;;;;;;1999.90;999.90;;;11.00;99.90;;;;;;5015038;28;20448;-68
2022/12/26 03:20:58;;;;;;;1999.90;999.90;;;10.90;99.90;;;;;;5009973;28;20464;-68
2022/12/26 03:23:25;;;;;;;1999.90;999.90;;;10.80;99.90;;;;;;5009640;28;20457;-68
2022/12/26 03:30:47;;;;;;;1999.90;999.90;;;10.60;99.90;;;;;;4986297;28;20431;-68
2022/12/26 03:31:40;;;;;;;1999.90;999.90;;;10.50;99.90;;;;;;4985003;28;20560;-68
2022/12/26 03:34:19;;;;;;;1999.90;999.90;;;10.40;99.90;;;;;;5010585;28;21101;-68
2022/12/26 03:37:01;;;;;;;1999.90;999.90;;;10.40;99.90;;;;;;5028921;28;20230;-68
2022/12/26 04:19:37;;;;;;;1999.90;999.90;;;11.80;99.90;;;;;;5007719;28;20512;-67
2022/12/26 04:44:36;;;;;;;1999.90;999.90;;;11.80;99.90;;;;;;5027911;28;20612;-68
2022/12/26 04:47:03;;;;;;;1999.90;999.90;;;11.90;99.90;;;;;;5026090;28;20452;-67
2022/12/26 04:52:15;;;;;;;1999.90;999.90;;;11.90;99.90;;;;;;5027022;28;21008;-67
2022/12/26 04:54:42;;;;;;;1999.90;999.90;;;11.90;99.90;;;;;;5027920;28;20492;-68
2022/12/26 04:57:10;;;;;;;1999.90;999.90;;;11.90;99.90;;;;;;5028075;28;20453;-67
2022/12/26 04:59:38;;;;;;;1999.90;999.90;;;11.80;99.90;;;;;;5027112;28;20448;-67
2022/12/26 05:10:23;;;;;;;1999.90;999.90;;;11.70;99.90;;;;;;5006633;28;20463;-67
2022/12/26 05:12:50;;;;;;;1999.90;999.90;;;11.70;99.90;;;;;;5007873;28;20450;-67
2022/12/26 05:15:19;;;;;;;1999.90;999.90;;;11.70;99.90;;;;;;5008602;28;20550;-67
2022/12/26 05:28:54;;;;;;;1999.90;999.90;;;11.80;99.90;;;;;;5008037;28;20883;-67
2022/12/26 05:31:22;;;;;;;1999.90;999.90;;;11.80;99.90;;;;;;5006039;28;20465;-67
2022/12/26 05:34:06;;;;;;;1999.90;999.90;;;11.90;99.90;;;;;;5004639;28;20492;-67
2022/12/26 05:36:37;;;;;;;1999.90;999.90;;;11.90;99.90;;;;;;5010808;28;20541;-69
2022/12/26 05:39:04;;;;;;;1999.90;999.90;;;11.90;99.90;;;;;;5009485;28;20450;-67
2022/12/26 05:41:30;;;;;;;1999.90;999.90;;;11.90;99.90;;;;;;5009387;28;20452;-68
2022/12/26 05:43:57;;;;;;;1999.90;999.90;;;11.90;99.90;;;;;;5009814;28;20445;-68
2022/12/26 05:46:25;;;;;;;1999.90;999.90;;;11.90;99.90;;;;;;5009782;28;20462;-68
2022/12/26 05:48:52;;;;;;;1999.90;999.90;;;12.00;99.90;;;;;;5010906;28;20480;-68
2022/12/26 05:51:19;;;;;;;1999.90;999.90;;;12.10;99.90;;;;;;5011258;28;20454;-67
2022/12/26 05:53:47;;;;;;;1999.90;999.90;;;12.00;99.90;;;;;;5011138;28;20461;-68
2022/12/26 05:56:15;;;;;;;1999.90;999.90;;;12.00;99.90;;;;;;5011368;28;20477;-67
2022/12/26 05:58:42;;;;;;;1999.90;999.90;;;12.10;99.90;;;;;;5027633;28;20456;-68
2022/12/26 06:01:12;;;;;;;1999.90;999.90;;;12.10;99.90;;;;;;5017413;28;20684;-68
2022/12/26 06:03:42;;;;;;;1999.90;999.90;;;12.00;99.90;;;;;;5010742;28;21070;-68
2022/12/26 06:06:10;;;;;;;1999.90;999.90;;;12.00;99.90;;;;;;5011014;28;20469;-68
2022/12/26 06:08:37;;;;;;;1999.90;999.90;;;11.90;99.90;;;;;;5010323;28;20452;-68
2022/12/26 06:11:05;;;;;;;1999.90;999.90;;;11.90;99.90;;;;;;5023624;28;20467;-68
2022/12/26 06:13:32;;;;;;;1999.90;999.90;;;12.00;99.90;;;;;;5030417;28;20441;-68
2022/12/26 06:15:59;;;;;;;1999.90;999.90;;;12.00;99.90;;;;;;5030189;28;20489;-68
2022/12/26 06:18:26;;;;;;;1999.90;999.90;;;12.00;99.90;;;;;;5029726;28;20452;-68
2022/12/26 06:20:54;;;;;;;1999.90;999.90;;;12.00;99.90;;;;;;5027256;28;20453;-68
2022/12/26 06:23:21;;;;;;;1999.90;999.90;;;12.00;99.90;;;;;;5010522;28;20457;-68
2022/12/26 06:25:54;;;;;;;1999.90;999.90;;;12.00;99.90;;;;;;5010394;28;21012;-68
2022/12/26 06:28:21;;;;;;;1999.90;999.90;;;11.90;99.90;;;;;;5010187;28;20449;-68
2022/12/26 06:30:47;;;;;;;1999.90;999.90;;;11.90;99.90;;;;;;5010624;28;20461;-68
2022/12/26 06:33:14;;;;;;;1999.90;999.90;;;11.90;99.90;;;;;;5009845;28;20461;-68
2022/12/26 06:35:41;;;;;;;1999.90;999.90;;;12.00;99.90;;;;;;5010669;28;20500;-67
2022/12/26 06:38:09;;;;;;;1999.90;999.90;;;11.90;99.90;;;;;;5028362;28;20449;-67
2022/12/26 06:40:39;;;;;;;1999.90;999.90;;;12.00;99.90;;;;;;5029744;28;20453;-68
2022/12/26 06:43:06;;;;;;;1999.90;999.90;;;12.00;99.90;;;;;;5029997;28;20453;-67
2022/12/26 06:45:32;;;;;;;1999.90;999.90;;;11.90;99.90;;;;;;5029840;28;20917;-68
2022/12/26 06:47:59;;;;;;;1999.90;999.90;;;12.00;99.90;;;;;;5030321;28;20453;-68
2022/12/26 06:50:26;;;;;;;1999.90;999.90;;;12.00;99.90;;;;;;5029331;28;20460;-68
2022/12/26 06:52:53;;;;;;;1999.90;999.90;;;11.90;99.90;;;;;;5029744;28;20445;-68
2022/12/26 06:55:21;;;;;;;1999.90;999.90;;;11.90;99.90;;;;;;5028244;28;20487;-68
2022/12/26 06:57:48;;;;;;;1999.90;999.90;;;12.00;99.90;;;;;;5014002;28;20469;-68
2022/12/26 07:00:15;;;;;;;1999.90;999.90;;;12.00;99.90;;;;;;5009401;28;20457;-68
2022/12/26 07:02:42;;;;;;;1999.90;999.90;;;12.10;99.90;;;;;;5009185;28;21043;-68
2022/12/26 07:05:09;;;;;;;1999.90;999.90;;;12.00;99.90;;;;;;5009991;28;20473;-68
2022/12/26 07:07:36;;;;;;;1999.90;999.90;;;11.90;99.90;;;;;;5009788;28;20464;-68
2022/12/26 07:10:02;;;;;;;1999.90;999.90;;;12.00;99.90;;;;;;5008979;28;20485;-68
2022/12/26 07:12:33;;;;;;;1999.90;999.90;;;12.00;99.90;;;;;;5022656;28;20460;-68
2022/12/26 07:15:00;;;;;;;1999.90;999.90;;;12.00;99.90;;;;;;5029233;28;20488;-68
2022/12/26 07:17:27;;;;;;;1999.90;999.90;;;12.00;99.90;;;;;;5029668;28;20433;-68
2022/12/26 07:19:54;;;;;;;1999.90;999.90;;;12.00;99.90;;;;;;5028155;28;20938;-68
2022/12/26 07:22:20;;;;;;;1999.90;999.90;;;12.00;99.90;;;;;;5029012;28;20449;-68
2022/12/26 07:24:47;;;;;;;1999.90;999.90;;;12.00;99.90;;;;;;5029218;28;20448;-68
2022/12/26 07:27:14;;;;;;;1999.90;999.90;;;12.00;99.90;;;;;;5029723;28;21167;-68
2022/12/26 07:29:42;;;;;;;1999.90;999.90;;;11.90;99.90;;;;;;5027902;28;20829;-68
2022/12/26 07:32:09;;;;;;;1999.90;999.90;;;11.90;99.90;;;;;;5028717;28;21176;-68
2022/12/26 07:34:35;;;;;;;1999.90;999.90;;;11.90;99.90;;;;;;5029255;28;20484;-68
2022/12/26 07:37:02;;;;;;;1999.90;999.90;;;12.00;99.90;;;;;;5028990;28;20448;-68
2022/12/26 07:39:29;;;;;;;1999.90;999.90;;;11.90;99.90;;;;;;5028590;28;20455;-68
2022/12/26 07:41:59;;;;;;;1999.90;999.90;;;11.90;99.90;;;;;;5029516;28;20445;-68
2022/12/26 07:44:26;;;;;;;1999.90;999.90;;;11.90;99.90;;;;;;5029107;28;20555;-68
2022/12/26 07:46:55;;;;;;;1999.90;999.90;;;11.90;99.90;;;;;;5019903;28;20478;-68
2022/12/26 07:49:22;;;;;;;1999.90;999.90;;;11.90;99.90;;;;;;5008622;28;20458;-68
2022/12/26 07:51:49;;;;;;;1999.90;999.90;;;11.90;99.90;;;;;;5009605;28;20457;-68
2022/12/26 07:54:16;;;;;;;1999.90;999.90;;;11.90;99.90;;;;;;5008693;28;20445;-68
2022/12/26 07:56:43;;;;;;;1999.90;999.90;;;11.90;99.90;;;;;;5008536;28;20465;-68
2022/12/26 07:59:14;;;;;;;1999.90;999.90;;;12.00;99.90;;;;;;5008353;28;20955;-69
2022/12/26 08:01:41;;;;;;;1999.90;999.90;;;12.00;99.90;;;;;;5026380;28;20507;-68
2022/12/26 08:04:09;;;;;;;1999.90;999.90;;;12.00;99.90;;;;;;5028359;28;20452;-68
2022/12/26 08:06:36;;;;;;;1999.90;999.90;;;12.00;99.90;;;;;;5028530;28;20460;-67
2022/12/26 08:09:03;;;;;;;1999.90;999.90;;;12.00;99.90;;;;;;5028019;28;20449;-67
2022/12/26 08:11:32;;;;;;;1999.90;999.90;;;12.00;99.90;;;;;;5028386;28;20449;-67
2022/12/26 08:13:59;;;;;;;1999.90;999.90;;;11.90;99.90;;;;;;5028040;28;20974;-69
2022/12/26 08:16:26;;;;;;;1999.90;999.90;;;11.90;99.90;;;;;;5026454;28;20488;-69
2022/12/26 08:18:53;;;;;;;1999.90;999.90;;;11.90;99.90;;;;;;5027502;28;20460;-68
2022/12/26 08:21:21;;;;;;;1999.90;999.90;;;11.90;99.90;;;;;;5028201;28;21132;-69
2022/12/26 08:23:48;;;;;;;1999.90;999.90;;;12.00;99.90;;;;;;5014686;28;20464;-72
2022/12/26 08:26:19;;;;;;;1999.90;999.90;;;11.90;99.90;;;;;;5006634;28;20469;-68
2022/12/26 08:28:46;;;;;;;1999.90;999.90;;;11.80;99.90;;;;;;5004297;28;20555;-68
2022/12/26 08:31:13;;;;;;;1999.90;999.90;;;11.80;99.90;;;;;;5001291;28;20454;-74
2022/12/26 08:33:40;;;;;;;1999.90;999.90;;;11.90;99.90;;;;;;5008332;28;20450;-67
2022/12/26 08:36:10;;;;;;;1999.90;999.90;;;11.90;99.90;;;;;;5007821;28;20494;-68
2022/12/26 08:38:39;;;;;;;1999.90;999.90;;;11.90;99.90;;;;;;5007691;28;21145;-67
2022/12/26 08:41:06;;;;;;;1999.90;999.90;;;11.90;99.90;;;;;;5008003;28;20445;-68
2022/12/26 08:43:32;;;;;;;1999.90;999.90;;;11.90;99.90;;;;;;5007704;28;21161;-67
2022/12/26 08:46:00;;;;;;;1999.90;999.90;;;11.80;99.90;;;;;;5007726;28;20469;-67
2022/12/26 08:48:28;;;;;;;1999.90;999.90;;;11.80;99.90;;;;;;5008412;28;20457;-67
2022/12/26 08:51:07;;;;;;;1999.90;999.90;;;11.80;99.90;;;;;;5024493;28;20449;-67
2022/12/26 08:53:35;;;;;;;1999.90;999.90;;;11.80;99.90;;;;;;5007496;28;20508;-68
2022/12/26 08:56:04;;;;;;;1999.90;999.90;;;11.80;99.90;;;;;;5007776;28;20485;-67
2022/12/26 08:58:34;;;;;;;1999.90;999.90;;;11.70;99.90;;;;;;5007190;28;20555;-67
2022/12/26 09:01:07;;;;;;;1999.90;999.90;;;11.80;99.90;;;;;;5006727;28;20457;-68
2022/12/26 09:03:34;;;;;;;1999.90;999.90;;;11.80;99.90;;;;;;5007050;28;20438;-67
2022/12/26 09:06:01;;;;;;;1999.90;999.90;;;11.70;99.90;;;;;;5007208;28;20470;-67
2022/12/26 09:08:29;;;;;;;1999.90;999.90;;;11.50;99.90;;;;;;5002348;28;20461;-67
2022/12/26 09:11:04;;;;;;;1999.90;999.90;;;11.30;99.90;;;;;;5004531;28;20497;-67
2022/12/26 09:13:34;;;;;;;1999.90;999.90;;;11.10;99.90;;;;;;5007372;28;21080;-67
2022/12/26 09:16:09;;;;;;;1999.90;999.90;;;10.90;99.90;;;;;;5006632;28;20489;-67
2022/12/26 09:18:36;;;;;;;1999.90;999.90;;;10.80;99.90;;;;;;4998425;28;20449;-68
2022/12/26 09:21:03;;;;;;;1999.90;999.90;;;10.70;99.90;;;;;;5006721;28;20454;-67
2022/12/26 09:23:31;;;;;;;1999.90;999.90;;;10.60;99.90;;;;;;5003073;28;20460;-67
2022/12/26 09:26:04;;;;;;;1999.90;999.90;;;10.50;99.90;;;;;;5006429;28;20453;-67
2022/12/26 09:28:33;;;;;;;1999.90;999.90;;;10.40;99.90;;;;;;5005437;28;20445;-67
2022/12/26 09:31:00;;;;;;;1999.90;999.90;;;10.50;99.90;;;;;;5006842;28;20794;-67
2022/12/26 09:33:27;;;;;;;1999.90;999.90;;;10.40;99.90;;;;;;5001694;28;20555;-68
2022/12/26 09:35:54;;;;;;;1999.90;999.90;;;10.50;99.90;;;;;;4999545;28;20866;-67
2022/12/26 09:38:21;;;;;;;1999.90;999.90;;;10.50;99.90;;;;;;5000729;28;21182;-67
2022/12/26 09:41:14;;;;;;;1999.90;999.90;;;10.50;99.90;;;;;;5002376;28;20842;-67
2022/12/26 09:43:53;;;;;;;1999.90;999.90;;;10.50;99.90;;;;;;5001827;28;20534;-67
2022/12/26 09:46:32;;;;;;;1999.90;999.90;;;10.40;99.90;;;;;;5001098;28;20465;-67
2022/12/26 09:49:04;;;;;;;1999.90;999.90;;;10.40;99.90;;;;;;5001114;28;20516;-67
2022/12/26 09:51:34;;;;;;;1999.90;999.90;;;10.50;99.90;;;;;;4998208;28;20457;-67
2022/12/26 09:54:04;;;;;;;1999.90;999.90;;;10.40;99.90;;;;;;5000148;28;20473;-67
2022/12/26 09:56:33;;;;;;;1999.90;999.90;;;10.30;99.90;;;;;;5006272;28;20995;-68
2022/12/26 09:59:07;;;;;;;1999.90;999.90;;;10.20;99.90;;;;;;5005102;28;20449;-67
2022/12/26 10:01:36;;;;;;;1999.90;999.90;;;10.20;99.90;;;;;;5007417;28;20496;-67
2022/12/26 10:04:08;;;;;;;1999.90;999.90;;;10.20;99.90;;;;;;5005734;28;20461;-68
2022/12/26 10:06:38;;;;;;;1999.90;999.90;;;10.20;99.90;;;;;;4997173;28;20469;-68
2022/12/26 10:09:18;;;;;;;1999.90;999.90;;;10.30;99.90;;;;;;4998504;28;20473;-68
2022/12/26 10:12:01;;;;;;;1999.90;999.90;;;10.30;99.90;;;;;;5000938;28;20477;-67
2022/12/26 10:14:40;;;;;;;1999.90;999.90;;;10.30;99.90;;;;;;5005295;28;20810;-68
2022/12/26 10:17:18;;;;;;;1999.90;999.90;;;10.30;99.90;;;;;;5021723;28;20477;-68
2022/12/26 10:20:00;;;;;;;1999.90;999.90;;;10.30;99.90;;;;;;5027014;28;20464;-67
2022/12/26 10:22:50;;;;;;;1999.90;999.90;;;10.30;99.90;;;;;;5028011;28;20453;-67
2022/12/26 10:25:21;;;;;;;1999.90;999.90;;;10.30;99.90;;;;;;5016272;28;20476;-68
2022/12/26 10:27:51;;;;;;;1999.90;999.90;;;10.40;99.90;;;;;;5029399;28;20820;-67
2022/12/26 10:30:23;;;;;;;1999.90;999.90;;;10.40;99.90;;;;;;5029853;28;20452;-67
2022/12/26 10:32:55;;;;;;;1999.90;999.90;;;10.40;99.90;;;;;;5028294;28;20966;-68
2022/12/26 10:35:28;;;;;;;1999.90;999.90;;;10.50;99.90;;;;;;5030639;28;20492;-68
2022/12/26 10:37:57;;;;;;;1999.90;999.90;;;10.40;99.90;;;;;;5030387;28;20449;-68
2022/12/26 10:40:29;;;;;;;1999.90;999.90;;;10.50;99.90;;;;;;5029724;28;20453;-68
2022/12/26 10:43:00;;;;;;;1999.90;999.90;;;10.50;99.90;;;;;;5029702;28;20456;-67
2022/12/26 10:45:36;;;;;;;1999.90;999.90;;;10.50;99.90;;;;;;5030181;28;20465;-68
2022/12/26 10:48:03;;;;;;;1999.90;999.90;;;10.50;99.90;;;;;;5030406;28;20818;-67
2022/12/26 10:50:33;;;;;;;1999.90;999.90;;;10.50;99.90;;;;;;5027287;28;20460;-68
2022/12/26 10:53:04;;;;;;;1999.90;999.90;;;10.50;99.90;;;;;;5029387;28;20951;-69
2022/12/26 10:55:33;;;;;;;1999.90;999.90;;;10.50;99.90;;;;;;5029936;28;20584;-68
2022/12/26 10:58:05;;;;;;;1999.90;999.90;;;10.50;99.90;;;;;;5029798;28;20833;-67
2022/12/26 11:00:34;;;;;;;1999.90;999.90;;;10.60;99.90;;;;;;5029111;28;20445;-67
2022/12/26 11:03:06;;;;;;;1999.90;999.90;;;10.60;99.90;;;;;;5029477;28;20464;-68
2022/12/26 11:05:34;;;;;;;1999.90;999.90;;;10.60;99.90;;;;;;5029667;28;20469;-67
2022/12/26 11:08:09;;;;;;;1999.90;999.90;;;10.70;99.90;;;;;;5028211;28;20457;-67
2022/12/26 11:10:36;;;;;;;1999.90;999.90;;;10.70;99.90;;;;;;5028447;28;20467;-66
2022/12/26 11:13:08;;;;;;;1999.90;999.90;;;10.70;99.90;;;;;;5027639;28;20456;-67
2022/12/26 11:15:40;;;;;;;1999.90;999.90;;;10.70;99.90;;;;;;5028068;28;20472;-66
2022/12/26 11:18:14;;;;;;;1999.90;999.90;;;10.70;99.90;;;;;;5029260;28;20451;-66
2022/12/26 11:20:42;;;;;;;1999.90;999.90;;;10.80;99.90;;;;;;5029403;28;20448;-67
2022/12/26 11:23:22;;;;;;;1999.90;999.90;;;10.80;99.90;;;;;;5029194;28;20451;-66
2022/12/26 11:25:51;;;;;;;1999.90;999.90;;;10.80;99.90;;;;;;5027760;28;20466;-66
2022/12/26 11:28:30;;;;;;;1999.90;999.90;;;10.80;99.90;;;;;;5028566;28;20459;-67
2022/12/26 11:31:00;;;;;;;1999.90;999.90;;;10.90;99.90;;;;;;5028551;28;20445;-68
2022/12/26 11:33:29;;;;;;;1999.90;999.90;;;10.90;99.90;;;;;;5028797;28;20440;-67
2022/12/26 11:36:09;;;;;;;1999.90;999.90;;;10.90;99.90;;;;;;5029021;28;20485;-67
2022/12/26 11:38:45;;;;;;;1999.90;999.90;;;11.00;99.90;;;;;;5028346;28;20459;-67
2022/12/26 11:41:37;;;;;;;1999.90;999.90;;;11.10;99.90;;;;;;5028846;28;20448;-67
2022/12/26 11:44:19;;;;;;;1999.90;999.90;;;11.20;99.90;;;;;;5027026;28;20457;-67
2022/12/26 11:46:51;;;;;;;1999.90;999.90;;;11.30;99.90;;;;;;5028863;28;20471;-67
2022/12/26 11:49:24;;;;;;;1999.90;999.90;;;11.20;99.90;;;;;;5028265;28;20452;-68
2022/12/26 11:51:52;;;;;;;1999.90;999.90;;;11.20;99.90;;;;;;5028985;28;20456;-67
2022/12/26 11:54:24;;;;;;;1999.90;999.90;;;11.10;99.90;;;;;;5028581;28;20449;-67
2022/12/26 11:57:01;;;;;;;1999.90;999.90;;;11.00;99.90;;;;;;5028293;28;20484;-67
2022/12/26 11:59:29;;;;;;;1999.90;999.90;;;11.00;99.90;;;;;;5027999;28;20429;-67
2022/12/26 12:02:24;;;;;;;1999.90;999.90;;;11.00;99.90;;;;;;5027054;28;20992;-67
2022/12/26 12:04:53;;;;;;;1999.90;999.90;;;11.00;99.90;;;;;;5028639;28;20468;-68
2022/12/26 12:07:42;;;;;;;1999.90;999.90;;;11.00;99.90;;;;;;5028890;28;20445;-67
2022/12/26 12:10:26;;;;;;;1999.90;999.90;;;11.00;99.90;;;;;;5027404;28;20503;-68
2022/12/26 12:12:59;;;;;;;1999.90;999.90;;;11.00;99.90;;;;;;5028023;28;20448;-68
2022/12/26 12:15:34;;;;;;;1999.90;999.90;;;11.10;99.90;;;;;;5027496;28;20471;-68
2022/12/26 12:18:09;;;;;;;1999.90;999.90;;;11.20;99.90;;;;;;5026446;28;20459;-68
2022/12/26 12:20:44;;;;;;;1999.90;999.90;;;11.30;99.90;;;;;;5027946;28;20451;-68
2022/12/26 12:23:42;;;;;;;1999.90;999.90;;;11.50;99.90;;;;;;5014853;28;20460;-68
2022/12/26 12:26:12;;;;;;;1999.90;999.90;;;11.50;99.90;;;;;;5007723;28;20480;-68
2022/12/26 12:29:12;;;;;;;1999.90;999.90;;;11.50;99.90;;;;;;5007683;28;20524;-69
2022/12/26 12:31:51;;;;;;;1999.90;999.90;;;11.40;99.90;;;;;;5008447;28;20438;-68
2022/12/26 12:34:27;;;;;;;1999.90;999.90;;;11.40;99.90;;;;;;5008961;28;20449;-67
2022/12/26 12:37:06;;;;;;;1999.90;999.90;;;11.40;99.90;;;;;;5008119;28;20492;-68
2022/12/26 12:39:46;;;;;;;1999.90;999.90;;;11.40;99.90;;;;;;5007628;28;20446;-68
2022/12/26 12:42:24;;;;;;;1999.90;999.90;;;11.40;99.90;;;;;;5007669;28;21199;-68
2022/12/26 12:45:04;;;;;;;1999.90;999.90;;;11.40;99.90;;;;;;5008087;28;20472;-67
2022/12/26 12:47:41;;;;;;;1999.90;999.90;;;11.30;99.90;;;;;;5007763;28;20461;-68
2022/12/26 12:50:17;;;;;;;1999.90;999.90;;;11.30;99.90;;;;;;5025790;28;20847;-68
2022/12/26 12:52:59;;;;;;;1999.90;999.90;;;11.40;99.90;;;;;;5027270;28;20452;-68
2022/12/26 12:55:47;;;;;;;1999.90;999.90;;;11.40;99.90;;;;;;5027526;28;20483;-68
2022/12/26 12:58:22;;;;;;;1999.90;999.90;;;11.40;99.90;;;;;;5027057;28;20973;-68
2022/12/26 13:00:55;;;;;;;1999.90;999.90;;;11.40;99.90;;;;;;5027570;28;20543;-68
2022/12/26 13:03:27;;;;;;;1999.90;999.90;;;11.40;99.90;;;;;;5025312;28;20498;-68
2022/12/26 13:06:04;;;;;;;1999.90;999.90;;;11.40;99.90;;;;;;5027385;28;20488;-68
2022/12/26 13:08:38;;;;;;;1999.90;999.90;;;11.40;99.90;;;;;;5026411;28;20451;-67
2022/12/26 13:11:09;;;;;;;1999.90;999.90;;;11.40;99.90;;;;;;5026550;28;20483;-67
2022/12/26 13:13:41;;;;;;;1999.90;999.90;;;11.40;99.90;;;;;;5026981;28;20493;-68
2022/12/26 13:16:13;;;;;;;1999.90;999.90;;;11.40;99.90;;;;;;5027266;28;20473;-67
2022/12/26 13:18:48;;;;;;;1999.90;999.90;;;11.30;99.90;;;;;;5025878;28;20448;-67
2022/12/26 13:21:18;;;;;;;1999.90;999.90;;;11.30;99.90;;;;;;5027436;28;20467;-67
2022/12/26 13:26:36;;;;;;;1999.90;999.90;;;11.30;99.90;;;;;;5027422;28;20499;-67
2022/12/26 13:29:08;;;;;;;1999.90;999.90;;;11.30;99.90;;;;;;5026651;28;20448;-67
2022/12/26 13:31:37;;;;;;;1999.90;999.90;;;11.20;99.90;;;;;;5027562;28;20448;-67
2022/12/26 13:34:07;;;;;;;1999.90;999.90;;;11.20;99.90;;;;;;5027088;28;20451;-67
2022/12/26 13:36:41;;;;;;;1999.90;999.90;;;11.20;99.90;;;;;;5025998;28;21077;-67
2022/12/26 13:39:36;;;;;;;1999.90;999.90;;;11.30;99.90;;;;;;5026321;28;20452;-67
2022/12/26 13:45:48;;;;;;;1999.90;999.90;;;11.50;99.90;;;;;;5027217;28;20852;-67
2022/12/26 13:49:01;;;;;;;1999.90;999.90;;;11.50;99.90;;;;;;5026705;28;20440;-67
2022/12/26 13:51:51;;;;;;;1999.90;999.90;;;11.50;99.90;;;;;;5014347;28;20449;-67
2022/12/26 13:54:19;;;;;;;1999.90;999.90;;;11.50;99.90;;;;;;4990191;28;20449;-68
2022/12/26 13:57:19;;;;;;;1999.90;999.90;;;11.60;99.90;;;;;;5010231;28;20490;-67
2022/12/26 14:00:00;;;;;;;1999.90;999.90;;;11.60;99.90;;;;;;5012196;28;20826;-67
2022/12/26 14:03:07;;;;;;;1999.90;999.90;;;11.60;99.90;;;;;;5030724;28;20452;-68
2022/12/26 14:05:40;;;;;;;1999.90;999.90;;;11.60;99.90;;;;;;5030551;28;20467;-67
2022/12/26 14:08:16;;;;;;;1999.90;999.90;;;11.60;99.90;;;;;;5030198;28;20445;-66
2022/12/26 14:11:00;;;;;;;1999.90;999.90;;;11.50;99.90;;;;;;5030633;28;20460;-69
2022/12/26 14:13:46;;;;;;;1999.90;999.90;;;11.50;99.90;;;;;;5030536;28;20445;-67
2022/12/26 14:16:18;;;;;;;1999.90;999.90;;;11.50;99.90;;;;;;5028765;28;20860;-67
2022/12/26 14:18:58;;;;;;;1999.90;999.90;;;11.50;99.90;;;;;;5029441;28;20448;-66
2022/12/26 14:21:46;;;;;;;1999.90;999.90;;;11.50;99.90;;;;;;5030540;28;20449;-67
2022/12/26 14:24:28;;;;;;;1999.90;999.90;;;11.40;99.90;;;;;;5029218;28;20968;-68
2022/12/26 14:27:08;;;;;;;1999.90;999.90;;;11.50;99.90;;;;;;5030017;28;20477;-67